This is the latest recevied weather packets stored in our database for station/object KC1BRV. If no packets are shown the sender has not sent any weather packets the latest 10 day(s).
| Time | Temp. | Humidity | Pressure | Rain* | Wind** | Luminosity | Snow |
|---|---|---|---|---|---|---|---|
| 1777469359 | 11.67° C | 69% | 1017.6 hPa | 0 mm | - | 196 W/m² | - |
| 1777469055 | 11.11° C | 70% | 1017.7 hPa | 0 mm | - | 316 W/m² | - |
| 1777468750 | 11.11° C | 71% | 1017.8 hPa | 0 mm | - | 161 W/m² | - |
| 1777468446 | 11.11° C | 72% | 1017.7 hPa | 0 mm | - | 158 W/m² | - |
| 1777468142 | 10.56° C | 72% | 1017.7 hPa | 0 mm | - | 260 W/m² | - |
| 1777467839 | 10.56° C | 74% | 1017.7 hPa | 0 mm | - | 150 W/m² | - |
| 1777467534 | 10° C | 75% | 1017.9 hPa | 0 mm | - | 83 W/m² | - |
| 1777467229 | 10° C | 76% | 1018.1 hPa | 0 mm | - | 194 W/m² | - |
| 1777466926 | 10° C | 75% | 1018.5 hPa | 0 mm | - | 172 W/m² | - |
| 1777466624 | 10.56° C | 75% | 1018.1 hPa | 0 mm | - | 146 W/m² | - |
| 1777466321 | 10.56° C | 73% | 1018.4 hPa | 0 mm | - | 238 W/m² | - |
| 1777466017 | 10° C | 76% | 1018.3 hPa | 0 mm | - | 316 W/m² | - |
| 1777465713 | 10° C | 77% | 1018.5 hPa | 0 mm | - | 223 W/m² | - |
| 1777465409 | 10° C | 78% | 1018.5 hPa | 0 mm | - | 209 W/m² | - |
| 1777465107 | 8.89° C | 81% | 1018.5 hPa | 0 mm | - | 314 W/m² | - |
| 1777464804 | 8.89° C | 81% | 1018.7 hPa | 0 mm | - | 146 W/m² | - |
| 1777464499 | 8.89° C | 81% | 1018.7 hPa | 0 mm | - | 123 W/m² | - |
| 1777464195 | 8.33° C | 82% | 1018.6 hPa | 0 mm | - | 144 W/m² | - |
| 1777463896 | 8.33° C | 83% | 1018.6 hPa | 0 mm | - | 139 W/m² | - |
| 1777463592 | 7.78° C | 84% | 1018.5 hPa | 0 mm | - | 134 W/m² | - |
| 1777463292 | 7.78° C | 84% | 1018.4 hPa | 0 mm | - | 121 W/m² | - |
| 1777462988 | 7.78° C | 84% | 1018.3 hPa | 0 mm | - | 107 W/m² | - |
| 1777462684 | 7.78° C | 84% | 1018.3 hPa | 0 mm | - | 93 W/m² | - |
| 1777462379 | 7.78° C | 84% | 1018.3 hPa | 0 mm | - | 79 W/m² | - |
| 1777462076 | 7.78° C | 86% | 1018.4 hPa | 0 mm | - | 78 W/m² | - |
* Rain latest hour (hover to see other rain measurements)
** Current wind speed in m/s (hover to see current wind gust speed)